createdAt,value
2022-08-05T00:00:16.259Z,25.23
2022-08-05T00:02:50.725Z,25.15
2022-08-05T00:06:03.030Z,25.11
2022-08-05T00:08:30.821Z,25.12
2022-08-05T00:10:54.126Z,25.10
2022-08-05T00:13:20.950Z,25.12
2022-08-05T00:16:08.478Z,25.06
2022-08-05T00:18:38.029Z,25.06
2022-08-05T00:21:06.873Z,25.04
2022-08-05T00:23:46.657Z,25.06
2022-08-05T00:26:20.953Z,25.05
2022-08-05T00:28:50.604Z,25.02
2022-08-05T00:31:53.986Z,25.02
2022-08-05T00:34:56.128Z,24.86
2022-08-05T00:37:10.421Z,24.81
2022-08-05T00:39:41.715Z,24.88
2022-08-05T00:42:36.783Z,24.91
2022-08-05T00:45:08.720Z,24.85
2022-08-05T00:47:56.676Z,24.76
2022-08-05T00:50:25.974Z,24.77
2022-08-05T00:52:54.923Z,24.72
2022-08-05T00:55:22.904Z,24.78
2022-08-05T00:57:58.012Z,24.71
2022-08-05T01:00:28.176Z,24.64
2022-08-05T01:02:56.941Z,24.57
2022-08-05T01:05:25.030Z,24.72
2022-08-05T01:08:41.291Z,24.72
2022-08-05T01:10:54.933Z,24.67
2022-08-05T01:13:59.099Z,24.63
2022-08-05T01:17:09.398Z,24.56
2022-08-05T01:20:03.749Z,24.51
2022-08-05T01:23:23.323Z,24.46
2022-08-05T01:26:14.506Z,24.42
2022-08-05T01:29:18.107Z,24.39
2022-08-05T01:31:55.108Z,24.38
2022-08-05T01:34:47.999Z,24.36
2022-08-05T01:37:33.099Z,24.36
2022-08-05T01:40:06.032Z,24.29
2022-08-05T01:42:34.736Z,24.28
2022-08-05T01:45:03.195Z,24.20
2022-08-05T01:47:39.208Z,24.23
2022-08-05T01:50:15.127Z,24.08
2022-08-05T01:52:49.991Z,24.23
2022-08-05T01:55:20.886Z,24.16
2022-08-05T01:58:11.650Z,24.04
2022-08-05T02:00:42.431Z,24.07
2022-08-05T02:03:34.180Z,23.95
2022-08-05T02:06:33.921Z,24.00
2022-08-05T02:08:57.897Z,23.94
2022-08-05T02:11:33.644Z,23.96
2022-08-05T02:14:12.611Z,23.97
2022-08-05T02:16:52.785Z,24.02
2022-08-05T02:19:35.003Z,23.99
2022-08-05T02:22:26.471Z,24.04
2022-08-05T02:25:04.018Z,24.10
2022-08-05T02:27:59.332Z,24.21
2022-08-05T02:30:22.483Z,24.13
2022-08-05T02:32:54.689Z,24.16
2022-08-05T02:35:28.314Z,24.13
2022-08-05T02:38:02.301Z,24.08
2022-08-05T02:40:30.918Z,24.06
2022-08-05T02:42:59.793Z,24.07
2022-08-05T02:45:52.848Z,24.11
2022-08-05T02:48:17.486Z,24.09
2022-08-05T02:50:48.403Z,24.03
2022-08-05T02:53:18.907Z,23.99
2022-08-05T02:55:54.009Z,24.04
2022-08-05T02:58:27.472Z,23.92
2022-08-05T03:01:00.920Z,24.00
2022-08-05T03:03:34.340Z,23.96
2022-08-05T03:09:05.175Z,23.95
2022-08-05T03:11:56.529Z,23.89
2022-08-05T03:14:21.577Z,23.79
2022-08-05T03:16:48.501Z,23.80
2022-08-05T03:19:29.412Z,23.82
2022-08-05T03:22:00.587Z,23.84
2022-08-05T03:24:30.640Z,23.85
2022-08-05T03:26:58.984Z,23.89
2022-08-05T03:29:44.625Z,23.89
2022-08-05T03:32:15.368Z,23.80
2022-08-05T03:34:50.945Z,23.84
2022-08-05T03:37:20.794Z,23.80
2022-08-05T03:40:01.458Z,23.84
2022-08-05T03:42:32.448Z,23.82
2022-08-05T03:45:01.899Z,23.82
2022-08-05T03:47:46.976Z,23.76
2022-08-05T03:50:16.259Z,23.73
2022-08-05T03:55:49.730Z,23.67
2022-08-05T03:56:26.953Z,23.69
2022-08-05T03:59:03.583Z,23.65
2022-08-05T04:01:37.788Z,23.61
2022-08-05T04:04:09.723Z,23.54
2022-08-05T04:06:38.534Z,23.56
2022-08-05T04:09:25.953Z,23.44
2022-08-05T04:11:56.447Z,23.54
2022-08-05T04:14:30.343Z,23.42
2022-08-05T04:17:00.014Z,23.49
2022-08-05T04:19:29.211Z,23.46
2022-08-05T04:22:08.561Z,23.41
2022-08-05T04:24:52.632Z,23.36
2022-08-05T04:27:33.240Z,23.32
2022-08-05T04:30:08.767Z,23.38
2022-08-05T04:32:35.965Z,23.34
2022-08-05T04:35:04.758Z,23.40
2022-08-05T04:38:00.743Z,23.31
2022-08-05T04:40:20.859Z,23.43
2022-08-05T04:42:47.725Z,23.39
2022-08-05T04:45:31.377Z,23.46
2022-08-05T04:48:18.625Z,23.49
2022-08-05T04:51:02.716Z,23.50
2022-08-05T04:53:33.682Z,23.52
2022-08-05T04:56:32.624Z,23.56
2022-08-05T04:58:50.125Z,23.56
2022-08-05T05:02:06.263Z,23.47
2022-08-05T05:04:05.031Z,23.34
2022-08-05T05:06:40.375Z,23.44
2022-08-05T05:09:13.981Z,23.46
2022-08-05T05:11:54.662Z,23.47
2022-08-05T05:14:31.287Z,23.44
2022-08-05T05:17:00.567Z,23.52
2022-08-05T05:19:36.867Z,23.48
2022-08-05T05:22:24.473Z,23.47
2022-08-05T05:24:58.433Z,23.46
2022-08-05T05:27:41.691Z,23.46
2022-08-05T05:30:30.616Z,23.47
2022-08-05T05:33:03.755Z,23.48
2022-08-05T05:35:42.709Z,23.49
2022-08-05T05:38:13.094Z,23.57
2022-08-05T05:40:48.086Z,23.57
2022-08-05T05:43:22.334Z,23.55
2022-08-05T05:45:55.129Z,23.64
2022-08-05T05:48:27.307Z,23.66
2022-08-05T05:50:54.687Z,23.69
2022-08-05T05:53:22.224Z,23.69
2022-08-05T05:55:51.493Z,23.74
2022-08-05T05:58:31.844Z,23.94
2022-08-05T06:01:13.093Z,24.00
2022-08-05T06:04:00.903Z,24.06
2022-08-05T06:06:30.942Z,24.22
2022-08-05T06:08:59.148Z,24.26
2022-08-05T06:11:26.247Z,24.26
2022-08-05T06:13:56.211Z,24.32
2022-08-05T06:16:30.123Z,24.33
2022-08-05T06:19:01.999Z,24.34
2022-08-05T06:21:36.523Z,24.42
2022-08-05T06:24:11.273Z,24.47
2022-08-05T06:26:51.049Z,24.44
2022-08-05T06:29:25.349Z,24.53
2022-08-05T06:32:25.493Z,24.64
2022-08-05T06:34:56.173Z,24.62
2022-08-05T06:37:57.895Z,24.65
2022-08-05T06:40:13.704Z,24.64
2022-08-05T06:42:40.961Z,24.67
2022-08-05T06:45:09.352Z,24.67
2022-08-05T06:48:36.902Z,24.77
2022-08-05T06:50:24.911Z,24.74
2022-08-05T06:53:04.015Z,24.80
2022-08-05T06:55:38.607Z,24.83
2022-08-05T06:58:29.177Z,24.84
2022-08-05T07:01:02.976Z,24.86
2022-08-05T07:03:32.533Z,24.96
2022-08-05T07:06:06.196Z,24.92
2022-08-05T07:08:47.191Z,25.00
2022-08-05T07:11:15.318Z,24.97
2022-08-05T07:14:02.088Z,24.99
2022-08-05T07:17:57.033Z,25.03
2022-08-05T07:22:29.078Z,25.13
2022-08-05T07:25:24.079Z,25.20
2022-08-05T07:27:59.616Z,25.27
2022-08-05T07:30:33.922Z,25.30
2022-08-05T07:33:04.960Z,25.34
2022-08-05T07:36:02.762Z,25.26
2022-08-05T07:38:32.388Z,25.33
2022-08-05T07:42:07.698Z,25.40
2022-08-05T07:43:58.574Z,25.46
2022-08-05T07:46:29.170Z,25.44
2022-08-05T07:49:05.378Z,25.50
2022-08-05T07:51:48.482Z,25.53
2022-08-05T07:54:23.132Z,25.50
2022-08-05T07:57:02.704Z,25.57
2022-08-05T07:59:41.217Z,25.48
2022-08-05T08:02:16.169Z,25.70
2022-08-05T08:04:49.240Z,25.73
2022-08-05T08:07:22.472Z,25.75
2022-08-05T08:09:52.169Z,25.76
2022-08-05T08:12:37.447Z,25.77
2022-08-05T08:15:15.553Z,25.83
2022-08-05T08:17:46.148Z,25.78
2022-08-05T08:20:44.174Z,25.81
2022-08-05T08:23:04.305Z,25.86
2022-08-05T08:25:59.258Z,25.96
2022-08-05T08:28:36.137Z,26.06
2022-08-05T08:31:06.484Z,26.18
2022-08-05T08:33:37.834Z,26.12
2022-08-05T08:38:55.624Z,26.19
2022-08-05T08:41:26.109Z,26.12
2022-08-05T08:45:20.620Z,26.20
2022-08-05T08:47:21.911Z,26.20
2022-08-05T08:50:06.178Z,26.27
2022-08-05T08:52:51.797Z,26.25
2022-08-05T08:56:02.913Z,26.31
2022-08-05T08:58:10.165Z,26.44
2022-08-05T09:00:41.270Z,26.45
2022-08-05T09:03:09.743Z,26.44
2022-08-05T09:05:38.837Z,26.43
2022-08-05T09:08:27.337Z,26.47
2022-08-05T09:10:54.710Z,26.58
2022-08-05T09:13:23.620Z,26.60
2022-08-05T09:15:51.461Z,26.61
2022-08-05T09:18:18.717Z,26.63
2022-08-05T09:20:47.119Z,26.61
2022-08-05T09:23:19.881Z,26.76
2022-08-05T09:26:08.523Z,26.82
2022-08-05T09:28:40.406Z,26.85
2022-08-05T09:31:43.975Z,26.84
2022-08-05T09:34:11.205Z,26.76
2022-08-05T09:36:54.726Z,26.86
2022-08-05T09:39:27.513Z,26.83
2022-08-05T09:42:07.883Z,27.18
2022-08-05T09:44:50.400Z,27.20
2022-08-05T09:47:36.506Z,27.20
2022-08-05T09:50:18.254Z,27.18
2022-08-05T09:53:01.038Z,27.18
2022-08-05T09:55:58.278Z,27.14
2022-08-05T09:58:15.768Z,27.19
2022-08-05T10:01:13.409Z,27.34
2022-08-05T10:03:59.453Z,27.42
2022-08-05T10:06:28.111Z,27.59
2022-08-05T10:08:56.221Z,27.56
2022-08-05T10:11:23.714Z,27.59
2022-08-05T10:13:58.200Z,27.77
2022-08-05T10:16:41.863Z,27.91
2022-08-05T10:19:23.594Z,28.25
2022-08-05T10:21:59.012Z,28.24
2022-08-05T10:24:27.189Z,28.15
2022-08-05T10:27:00.315Z,28.19
2022-08-05T10:30:06.559Z,28.44
2022-08-05T10:32:55.448Z,28.59
2022-08-05T10:35:04.065Z,28.51
2022-08-05T10:37:44.475Z,28.48
2022-08-05T10:40:27.992Z,28.49
2022-08-05T10:43:04.901Z,28.47
2022-08-05T10:45:41.654Z,28.50
2022-08-05T10:48:52.762Z,28.83
2022-08-05T10:51:29.015Z,28.98
2022-08-05T10:54:00.961Z,28.87
2022-08-05T10:56:31.176Z,28.78
2022-08-05T10:59:11.434Z,28.82
2022-08-05T11:01:54.809Z,28.85
2022-08-05T11:04:28.459Z,28.93
2022-08-05T11:06:58.070Z,28.99
2022-08-05T11:09:32.008Z,29.13
2022-08-05T11:12:29.138Z,29.23
2022-08-05T11:16:00.894Z,29.36
2022-08-05T11:18:32.462Z,29.74
2022-08-05T11:20:59.835Z,31.26
2022-08-05T11:24:05.717Z,33.09
2022-08-05T11:26:39.435Z,35.39
2022-08-05T11:29:13.765Z,37.47
2022-08-05T11:31:58.329Z,38.83
2022-08-05T11:34:39.489Z,40.38
2022-08-05T11:38:36.482Z,40.48
2022-08-05T11:39:55.292Z,41.73
2022-08-05T11:42:28.495Z,42.04
2022-08-05T11:45:05.890Z,42.37
2022-08-05T11:47:54.515Z,45.46
2022-08-05T11:50:22.539Z,43.40
2022-08-05T11:52:52.039Z,44.25
2022-08-05T11:55:21.391Z,47.51
2022-08-05T11:58:10.289Z,44.75
2022-08-05T12:00:41.318Z,45.99
2022-08-05T12:03:28.570Z,45.47
2022-08-05T12:06:01.751Z,46.36
2022-08-05T12:08:28.955Z,46.02
2022-08-05T12:11:05.459Z,45.10
2022-08-05T12:13:48.711Z,47.04
2022-08-05T12:16:19.720Z,44.31
2022-08-05T12:18:52.280Z,42.88
2022-08-05T12:21:33.262Z,40.74
2022-08-05T12:24:18.830Z,39.69
2022-08-05T12:26:52.637Z,40.81
2022-08-05T12:29:26.459Z,39.32
2022-08-05T12:32:01.776Z,37.39
2022-08-05T12:34:35.694Z,36.60
2022-08-05T12:37:17.217Z,36.45
2022-08-05T12:39:51.032Z,36.40
2022-08-05T12:42:20.459Z,36.16
2022-08-05T12:44:48.127Z,35.79
2022-08-05T12:47:28.844Z,35.43
2022-08-05T12:50:03.448Z,35.89
2022-08-05T12:52:42.528Z,35.24
2022-08-05T12:55:26.314Z,34.97
2022-08-05T12:58:49.312Z,34.94
2022-08-05T13:02:01.963Z,34.86
2022-08-05T13:03:42.482Z,34.28
2022-08-05T13:06:16.147Z,34.33
2022-08-05T13:08:51.506Z,34.13
2022-08-05T13:11:25.514Z,34.07
2022-08-05T13:14:36.536Z,33.78
2022-08-05T13:17:15.974Z,33.57
2022-08-05T13:20:06.830Z,33.80
2022-08-05T13:22:38.425Z,33.74
2022-08-05T13:25:18.675Z,33.36
2022-08-05T13:27:54.242Z,33.58
2022-08-05T13:30:36.120Z,33.72
2022-08-05T13:33:05.862Z,33.41
2022-08-05T13:35:50.419Z,33.42
2022-08-05T13:38:30.635Z,33.18
2022-08-05T13:41:01.094Z,33.18
2022-08-05T13:43:44.303Z,32.93
2022-08-05T13:46:16.362Z,33.15
2022-08-05T13:49:00.705Z,32.93
2022-08-05T13:51:40.466Z,32.77
2022-08-05T13:54:13.652Z,32.96
2022-08-05T13:56:45.064Z,32.73
2022-08-05T13:59:20.231Z,32.67
2022-08-05T14:01:57.363Z,32.87
2022-08-05T14:04:50.391Z,33.08
2022-08-05T14:07:25.634Z,32.89
2022-08-05T14:10:28.951Z,32.71
2022-08-05T14:12:57.752Z,32.98
2022-08-05T14:16:08.238Z,33.01
2022-08-05T14:18:17.608Z,32.73
2022-08-05T14:20:49.027Z,32.62
2022-08-05T14:23:25.161Z,32.61
2022-08-05T14:25:58.523Z,32.52
2022-08-05T14:28:28.789Z,32.31
2022-08-05T14:30:57.705Z,32.12
2022-08-05T14:33:24.618Z,31.99
2022-08-05T14:35:53.992Z,31.90
2022-08-05T14:38:33.126Z,31.67
2022-08-05T14:41:06.099Z,31.61
2022-08-05T14:44:01.999Z,31.43
2022-08-05T14:46:28.746Z,31.38
2022-08-05T14:49:06.874Z,31.30
2022-08-05T14:51:37.576Z,31.32
2022-08-05T14:54:28.818Z,31.25
2022-08-05T14:56:56.393Z,31.20
2022-08-05T14:59:23.795Z,31.12
2022-08-05T15:01:50.896Z,31.07
2022-08-05T15:04:20.742Z,31.08
2022-08-05T15:06:53.120Z,31.06
2022-08-05T15:09:52.403Z,30.99
2022-08-05T15:12:09.545Z,31.00
2022-08-05T15:14:48.100Z,31.03
2022-08-05T15:17:45.961Z,30.93
2022-08-05T15:20:07.566Z,30.88
2022-08-05T15:22:37.246Z,30.79
2022-08-05T15:25:11.459Z,30.85
2022-08-05T15:27:38.646Z,30.71
2022-08-05T15:30:10.987Z,30.66
2022-08-05T15:32:41.076Z,30.64
2022-08-05T15:35:10.697Z,30.69
2022-08-05T15:38:33.217Z,30.57
2022-08-05T15:40:59.682Z,30.57
2022-08-05T15:43:20.025Z,30.52
2022-08-05T15:45:47.569Z,30.48
2022-08-05T15:48:15.203Z,30.46
2022-08-05T15:50:43.743Z,30.33
2022-08-05T15:53:15.711Z,30.20
2022-08-05T15:56:02.762Z,30.13
2022-08-05T15:58:35.692Z,30.08
2022-08-05T16:01:16.381Z,30.01
2022-08-05T16:03:50.303Z,29.99
2022-08-05T16:06:20.336Z,30.11
2022-08-05T16:08:51.195Z,30.03
2022-08-05T16:11:42.521Z,30.07
2022-08-05T16:14:07.787Z,29.95
2022-08-05T16:16:36.252Z,29.99
2022-08-05T16:19:03.601Z,29.92
2022-08-05T16:22:01.113Z,30.00
2022-08-05T16:24:39.536Z,30.08
2022-08-05T16:27:04.883Z,30.05
2022-08-05T16:29:37.012Z,30.00
2022-08-05T16:32:06.531Z,29.99
2022-08-05T16:34:37.097Z,29.95
2022-08-05T16:38:03.656Z,29.88
2022-08-05T16:40:05.647Z,29.92
2022-08-05T16:42:35.110Z,29.78
2022-08-05T16:45:05.895Z,29.84
2022-08-05T16:47:54.213Z,29.66
2022-08-05T16:50:22.579Z,29.68
2022-08-05T16:52:49.411Z,29.69
2022-08-05T16:55:16.662Z,29.63
2022-08-05T16:58:00.215Z,29.57
2022-08-05T17:00:35.024Z,29.51
2022-08-05T17:03:09.208Z,29.43
2022-08-05T17:05:48.993Z,29.36
2022-08-05T17:08:35.903Z,29.33
2022-08-05T17:11:08.774Z,29.29
2022-08-05T17:13:37.289Z,29.20
2022-08-05T17:16:29.819Z,29.19
2022-08-05T17:18:55.268Z,29.20
2022-08-05T17:21:23.697Z,29.09
2022-08-05T17:24:05.535Z,29.08
2022-08-05T17:26:39.033Z,28.91
2022-08-05T17:29:10.125Z,28.96
2022-08-05T17:31:41.314Z,28.97
2022-08-05T17:34:30.190Z,28.95
2022-08-05T17:37:00.128Z,28.85
2022-08-05T17:39:33.192Z,28.79
2022-08-05T17:42:19.011Z,28.80
2022-08-05T17:44:50.485Z,28.64
2022-08-05T17:47:22.502Z,28.59
2022-08-05T17:49:59.943Z,28.52
2022-08-05T17:52:35.043Z,28.38
2022-08-05T17:55:21.375Z,28.28
2022-08-05T17:57:48.508Z,28.22
2022-08-05T18:00:17.371Z,28.27
2022-08-05T18:02:47.147Z,28.24
2022-08-05T18:05:16.958Z,28.08
2022-08-05T18:07:44.794Z,27.99
2022-08-05T18:10:20.630Z,27.99
2022-08-05T18:12:49.177Z,27.88
2022-08-05T18:15:16.187Z,27.88
2022-08-05T18:18:01.310Z,27.69
2022-08-05T18:20:32.112Z,27.60
2022-08-05T18:23:09.403Z,27.66
2022-08-05T18:25:39.871Z,27.64
2022-08-05T18:28:16.186Z,27.59
2022-08-05T18:30:45.654Z,27.46
2022-08-05T18:33:23.057Z,27.51
2022-08-05T18:36:03.821Z,27.40
2022-08-05T18:38:37.214Z,27.31
2022-08-05T18:41:53.514Z,27.35
2022-08-05T18:43:52.926Z,27.30
2022-08-05T18:46:20.689Z,27.35
2022-08-05T18:48:52.003Z,27.30
2022-08-05T18:52:05.359Z,27.21
2022-08-05T18:54:31.069Z,27.00
2022-08-05T18:57:01.357Z,26.99
2022-08-05T18:59:44.200Z,26.99
2022-08-05T19:02:36.557Z,26.98
2022-08-05T19:06:05.631Z,26.95
2022-08-05T19:07:53.190Z,26.94
2022-08-05T19:10:28.027Z,26.86
2022-08-05T19:12:55.139Z,26.79
2022-08-05T19:15:58.229Z,26.80
2022-08-05T19:18:13.418Z,26.51
2022-08-05T19:20:48.777Z,26.70
2022-08-05T19:24:03.575Z,26.68
2022-08-05T19:26:03.101Z,26.50
2022-08-05T19:28:31.244Z,26.53
2022-08-05T19:31:00.254Z,26.36
2022-08-05T19:33:35.514Z,26.34
2022-08-05T19:36:06.403Z,26.30
2022-08-05T19:38:37.118Z,26.16
2022-08-05T19:41:08.994Z,26.28
2022-08-05T19:44:06.984Z,26.21
2022-08-05T19:46:29.427Z,26.06
2022-08-05T19:49:03.503Z,26.08
2022-08-05T19:52:08.740Z,25.97
2022-08-05T19:54:25.606Z,25.96
2022-08-05T19:57:02.256Z,25.92
2022-08-05T19:59:55.446Z,25.90
2022-08-05T20:02:17.884Z,25.85
2022-08-05T20:04:45.955Z,25.83
2022-08-05T20:07:14.248Z,25.74
2022-08-05T20:09:53.785Z,25.78
2022-08-05T20:12:23.841Z,25.75
2022-08-05T20:14:52.848Z,25.59
2022-08-05T20:17:23.533Z,25.56
2022-08-05T20:19:57.054Z,25.58
2022-08-05T20:22:26.912Z,25.59
2022-08-05T20:24:55.745Z,25.41
2022-08-05T20:27:26.694Z,25.37
2022-08-05T20:29:58.575Z,25.37
2022-08-05T20:32:27.108Z,25.37
2022-08-05T20:34:54.519Z,25.39
2022-08-05T20:38:04.856Z,25.34
2022-08-05T20:40:09.285Z,25.22
2022-08-05T20:42:36.384Z,25.17
2022-08-05T20:45:05.272Z,25.16
2022-08-05T20:47:33.245Z,25.09
2022-08-05T20:50:01.805Z,24.92
2022-08-05T20:52:29.939Z,24.92
2022-08-05T20:55:54.283Z,24.89
2022-08-05T20:57:45.047Z,24.74
2022-08-05T21:00:40.986Z,24.63
2022-08-05T21:03:07.969Z,24.62
2022-08-05T21:05:47.741Z,24.63
2022-08-05T21:08:35.809Z,24.60
2022-08-05T21:11:11.948Z,24.59
2022-08-05T21:13:47.883Z,24.54
2022-08-05T21:16:23.197Z,24.51
2022-08-05T21:19:01.230Z,24.37
2022-08-05T21:21:44.122Z,24.35
2022-08-05T21:24:19.519Z,24.20
2022-08-05T21:26:53.597Z,24.09
2022-08-05T21:29:31.703Z,24.15
2022-08-05T21:32:00.783Z,24.03
2022-08-05T21:34:28.224Z,23.96
2022-08-05T21:36:55.203Z,23.97
2022-08-05T21:39:26.515Z,23.93
2022-08-05T21:42:01.034Z,23.95
2022-08-05T21:44:30.393Z,23.85
2022-08-05T21:46:58.498Z,23.73
2022-08-05T21:50:00.007Z,23.68
2022-08-05T21:52:22.711Z,23.62
2022-08-05T21:54:55.965Z,23.64
2022-08-05T21:57:31.969Z,23.59
2022-08-05T22:00:06.207Z,23.57
2022-08-05T22:02:34.575Z,23.62
2022-08-05T22:05:01.770Z,23.48
2022-08-05T22:07:40.081Z,23.52
2022-08-05T22:10:26.921Z,23.58
2022-08-05T22:12:59.165Z,23.58
2022-08-05T22:16:02.729Z,23.44
2022-08-05T22:18:24.866Z,23.45
2022-08-05T22:20:52.992Z,23.46
2022-08-05T22:24:01.836Z,23.35
2022-08-05T22:26:49.929Z,23.39
2022-08-05T22:29:18.837Z,23.33
2022-08-05T22:31:55.128Z,23.35
2022-08-05T22:34:28.626Z,23.38
2022-08-05T22:36:58.242Z,23.33
2022-08-05T22:39:33.200Z,23.24
2022-08-05T22:42:12.343Z,23.19
2022-08-05T22:44:56.323Z,23.27
2022-08-05T22:47:29.184Z,23.34
2022-08-05T22:50:20.111Z,23.29
2022-08-05T22:52:44.156Z,23.22
2022-08-05T22:55:19.499Z,23.04
2022-08-05T22:57:49.338Z,23.11
2022-08-05T23:00:17.819Z,23.18
2022-08-05T23:02:48.136Z,23.16
2022-08-05T23:05:15.824Z,23.18
2022-08-05T23:07:45.187Z,23.14
2022-08-05T23:10:16.374Z,23.23
2022-08-05T23:12:51.144Z,23.13
2022-08-05T23:15:21.134Z,23.10
2022-08-05T23:18:00.671Z,22.89
2022-08-05T23:20:28.862Z,22.90
2022-08-05T23:22:56.584Z,22.93
2022-08-05T23:25:53.523Z,23.02
2022-08-05T23:28:12.925Z,22.98
2022-08-05T23:30:53.414Z,22.84
2022-08-05T23:33:25.830Z,22.80
2022-08-05T23:36:06.158Z,22.94
2022-08-05T23:38:36.996Z,22.80
2022-08-05T23:41:03.785Z,22.90
2022-08-05T23:44:04.403Z,22.93
2022-08-05T23:46:20.201Z,22.71
2022-08-05T23:49:01.051Z,22.75
2022-08-05T23:51:53.596Z,22.88
2022-08-05T23:54:30.322Z,22.83
2022-08-05T23:57:03.712Z,22.79
